Time;durP1;ratioP1;P1;durP2;ratioP2;P2;SDS_P1;SDS_P2;PMS_P1;PMS_P2;Temp;Humidity;BMP_temperature;BMP_pressure;BME280_temperature;BME280_humidity;BME280_pressure;Samples;Min_cycle;Max_cycle;Signal;HPM_P1;HPM_P2
2022/03/25 00:01:36;;;;;;;42.65;18.30;;;;;;;;;;4991802;28;20059;-82
2022/03/25 00:04:02;;;;;;;38.40;18.08;;;;;;;;;;4992079;28;20055;-82
2022/03/25 00:06:29;;;;;;;37.70;17.27;;;;;;;;;;4991846;28;20399;-81
2022/03/25 00:08:58;;;;;;;42.15;19.08;;;;;;;;;;4999264;28;20062;-82
2022/03/25 00:11:25;;;;;;;34.97;17.17;;;;;;;;;;4993057;28;20062;-81
2022/03/25 00:13:51;;;;;;;31.27;16.15;;;;;;;;;;4997403;28;20067;-82
2022/03/25 00:16:18;;;;;;;36.75;16.95;;;;;;;;;;4993456;28;20047;-83
2022/03/25 00:18:47;;;;;;;36.33;16.75;;;;;;;;;;4993399;28;20058;-82
2022/03/25 00:21:21;;;;;;;41.30;19.00;;;;;;;;;;4991819;28;20065;-83
2022/03/25 00:23:48;;;;;;;38.65;17.55;;;;;;;;;;4991920;28;20051;-82
2022/03/25 00:26:14;;;;;;;35.90;18.25;;;;;;;;;;4989758;28;20057;-81
2022/03/25 00:28:40;;;;;;;45.58;18.02;;;;;;;;;;4994037;28;20823;-82
2022/03/25 00:31:07;;;;;;;41.30;18.15;;;;;;;;;;4990745;28;20047;-82
2022/03/25 00:33:35;;;;;;;36.33;16.50;;;;;;;;;;4982119;28;20043;-82
2022/03/25 00:36:02;;;;;;;34.08;16.23;;;;;;;;;;4990775;28;20046;-82
2022/03/25 00:38:29;;;;;;;34.80;16.38;;;;;;;;;;4990292;28;20086;-82
2022/03/25 00:40:55;;;;;;;40.42;17.85;;;;;;;;;;4990771;28;20039;-83
2022/03/25 00:43:22;;;;;;;36.85;17.70;;;;;;;;;;4994280;28;20065;-82
2022/03/25 00:45:48;;;;;;;45.08;19.75;;;;;;;;;;4994615;28;20058;-81
2022/03/25 00:48:14;;;;;;;48.97;21.55;;;;;;;;;;5003816;28;20031;-82
2022/03/25 00:50:41;;;;;;;47.20;21.80;;;;;;;;;;5008554;28;20160;-82
2022/03/25 00:53:08;;;;;;;43.90;21.38;;;;;;;;;;4993818;28;20055;-82
2022/03/25 00:55:34;;;;;;;51.00;22.92;;;;;;;;;;4993326;28;20039;-82
2022/03/25 00:58:01;;;;;;;46.00;22.45;;;;;;;;;;4993149;28;20059;-82
2022/03/25 01:00:28;;;;;;;45.97;20.55;;;;;;;;;;4984481;28;20514;-82
2022/03/25 01:02:54;;;;;;;43.65;19.55;;;;;;;;;;4992005;28;20061;-83
2022/03/25 01:05:21;;;;;;;38.25;17.73;;;;;;;;;;4994244;28;20070;-83
2022/03/25 01:07:47;;;;;;;41.53;18.10;;;;;;;;;;4999278;28;20114;-81
2022/03/25 01:10:14;;;;;;;42.05;18.27;;;;;;;;;;4991825;28;20110;-81
2022/03/25 01:12:40;;;;;;;38.38;18.05;;;;;;;;;;4993268;28;20537;-82
2022/03/25 01:15:07;;;;;;;34.90;17.48;;;;;;;;;;4995715;28;20078;-81
2022/03/25 01:17:34;;;;;;;39.60;18.70;;;;;;;;;;5010173;28;20066;-81
2022/03/25 01:20:02;;;;;;;39.28;18.60;;;;;;;;;;5028762;28;20062;-81
2022/03/25 01:22:29;;;;;;;35.72;17.00;;;;;;;;;;5007729;28;20708;-81
2022/03/25 01:24:55;;;;;;;42.42;18.23;;;;;;;;;;4992473;28;20059;-81
2022/03/25 01:27:22;;;;;;;39.55;19.45;;;;;;;;;;4992201;28;20054;-82
2022/03/25 01:29:49;;;;;;;42.80;19.02;;;;;;;;;;4993544;28;20061;-81
2022/03/25 01:32:16;;;;;;;40.53;18.67;;;;;;;;;;4991932;28;20063;-81
2022/03/25 01:34:42;;;;;;;43.67;18.73;;;;;;;;;;4991813;28;20047;-81
2022/03/25 01:37:09;;;;;;;42.22;19.60;;;;;;;;;;4992191;28;20572;-81
2022/03/25 01:39:35;;;;;;;39.88;18.75;;;;;;;;;;4989048;28;20823;-82
2022/03/25 01:42:02;;;;;;;40.20;18.67;;;;;;;;;;4992068;28;20071;-82
2022/03/25 01:44:29;;;;;;;40.95;18.80;;;;;;;;;;4992844;28;20055;-83
2022/03/25 01:46:56;;;;;;;44.25;18.65;;;;;;;;;;4991562;28;20055;-81
2022/03/25 01:49:23;;;;;;;45.50;20.63;;;;;;;;;;4991620;28;20066;-82
2022/03/25 01:51:50;;;;;;;50.33;21.48;;;;;;;;;;4990786;28;20059;-81
2022/03/25 01:54:31;;;;;;;48.42;21.92;;;;;;;;;;4990866;28;20057;-81
2022/03/25 01:57:03;;;;;;;62.50;27.33;;;;;;;;;;4985038;28;20504;-82
2022/03/25 01:59:29;;;;;;;60.28;25.10;;;;;;;;;;4972448;28;20110;-83
2022/03/25 02:01:56;;;;;;;64.10;26.02;;;;;;;;;;4990836;28;20046;-82
2022/03/25 02:04:23;;;;;;;67.55;27.13;;;;;;;;;;4991463;28;20058;-82
2022/03/25 02:06:50;;;;;;;59.45;27.35;;;;;;;;;;4995123;28;20031;-81
2022/03/25 02:09:17;;;;;;;61.17;27.95;;;;;;;;;;4992623;28;20107;-81
2022/03/25 02:11:46;;;;;;;63.08;28.20;;;;;;;;;;4991889;28;20506;-83
2022/03/25 02:14:12;;;;;;;67.85;29.83;;;;;;;;;;4992274;28;20055;-81
2022/03/25 02:16:43;;;;;;;63.38;29.38;;;;;;;;;;4999855;28;20109;-80
2022/03/25 02:19:11;;;;;;;59.85;27.35;;;;;;;;;;5004494;28;20086;-81
2022/03/25 02:21:41;;;;;;;63.13;27.83;;;;;;;;;;4993044;28;20047;-81
2022/03/25 02:24:08;;;;;;;68.10;29.15;;;;;;;;;;5012200;28;20035;-81
2022/03/25 02:26:35;;;;;;;64.43;27.23;;;;;;;;;;4994732;28;20062;-82
2022/03/25 02:29:03;;;;;;;64.32;27.65;;;;;;;;;;5013593;28;20934;-81
2022/03/25 02:31:29;;;;;;;66.85;28.25;;;;;;;;;;4998425;28;20055;-81
2022/03/25 02:33:58;;;;;;;67.60;28.48;;;;;;;;;;4991631;28;20079;-81
2022/03/25 02:36:24;;;;;;;60.42;26.77;;;;;;;;;;4991232;28;20042;-81
2022/03/25 02:38:50;;;;;;;72.18;29.65;;;;;;;;;;4991784;28;20055;-81
2022/03/25 02:41:17;;;;;;;68.85;29.63;;;;;;;;;;4992367;28;20055;-81
2022/03/25 02:43:43;;;;;;;63.88;29.38;;;;;;;;;;4991977;28;20133;-82
2022/03/25 02:46:10;;;;;;;74.93;30.60;;;;;;;;;;4990588;28;20055;-81
2022/03/25 02:48:36;;;;;;;70.18;30.65;;;;;;;;;;4990524;28;20047;-82
2022/03/25 02:51:03;;;;;;;72.88;31.63;;;;;;;;;;4990942;28;20058;-82
2022/03/25 02:53:29;;;;;;;78.97;32.97;;;;;;;;;;4991537;28;20059;-80
2022/03/25 02:55:56;;;;;;;74.95;33.22;;;;;;;;;;4990469;28;20055;-80
2022/03/25 02:58:23;;;;;;;78.13;34.80;;;;;;;;;;4992574;28;20061;-82
2022/03/25 03:00:49;;;;;;;80.20;33.40;;;;;;;;;;4991632;28;20114;-81
2022/03/25 03:03:16;;;;;;;74.90;32.70;;;;;;;;;;4988871;28;20065;-81
2022/03/25 03:05:42;;;;;;;75.35;33.55;;;;;;;;;;4981008;28;20551;-81
2022/03/25 03:08:09;;;;;;;74.68;32.75;;;;;;;;;;5010191;28;20058;-81
2022/03/25 03:10:35;;;;;;;78.25;34.90;;;;;;;;;;4996261;28;20062;-81
2022/03/25 03:13:02;;;;;;;82.65;35.10;;;;;;;;;;5009057;28;20093;-82
2022/03/25 03:15:29;;;;;;;77.70;34.10;;;;;;;;;;4990550;28;20113;-82
2022/03/25 03:17:55;;;;;;;75.70;33.28;;;;;;;;;;4992403;28;20055;-81
2022/03/25 03:20:24;;;;;;;80.70;34.83;;;;;;;;;;4990058;28;20101;-81
2022/03/25 03:22:50;;;;;;;75.80;35.22;;;;;;;;;;4977261;28;20087;-81
2022/03/25 03:25:17;;;;;;;80.53;34.78;;;;;;;;;;5005664;28;20145;-80
2022/03/25 03:27:43;;;;;;;76.75;32.55;;;;;;;;;;4989156;28;20043;-82
2022/03/25 03:30:11;;;;;;;79.47;35.35;;;;;;;;;;4989361;28;20117;-81
2022/03/25 03:32:37;;;;;;;83.30;35.83;;;;;;;;;;4989902;28;20062;-81
2022/03/25 03:35:04;;;;;;;77.25;34.40;;;;;;;;;;4990133;28;20538;-81
2022/03/25 03:37:31;;;;;;;87.05;35.53;;;;;;;;;;4990738;28;20054;-81
2022/03/25 03:39:58;;;;;;;80.43;35.58;;;;;;;;;;4975887;28;20055;-81
2022/03/25 03:42:24;;;;;;;87.18;36.47;;;;;;;;;;4998716;28;20055;-81
2022/03/25 03:44:51;;;;;;;81.82;34.92;;;;;;;;;;4990978;28;20050;-82
2022/03/25 03:47:17;;;;;;;84.10;36.63;;;;;;;;;;4991560;28;20058;-81
2022/03/25 03:49:43;;;;;;;90.97;36.63;;;;;;;;;;4971631;28;20043;-81
2022/03/25 03:52:10;;;;;;;84.10;37.33;;;;;;;;;;4971789;28;20059;-81
2022/03/25 03:54:38;;;;;;;85.00;36.92;;;;;;;;;;4984503;28;20055;-81
2022/03/25 03:57:08;;;;;;;81.22;35.25;;;;;;;;;;4986764;28;20059;-81
2022/03/25 03:59:35;;;;;;;84.25;35.88;;;;;;;;;;4995534;28;20068;-81
2022/03/25 04:02:03;;;;;;;79.18;34.17;;;;;;;;;;4999450;28;20073;-82
2022/03/25 04:04:29;;;;;;;75.68;33.47;;;;;;;;;;4991207;28;20137;-82
2022/03/25 04:06:56;;;;;;;70.57;31.15;;;;;;;;;;5000621;28;20809;-81
2022/03/25 04:09:22;;;;;;;73.40;32.33;;;;;;;;;;4995954;28;20138;-81
2022/03/25 04:11:49;;;;;;;74.75;32.05;;;;;;;;;;4989269;28;20050;-81
2022/03/25 04:14:15;;;;;;;74.03;32.47;;;;;;;;;;4993258;28;20474;-81
2022/03/25 04:16:41;;;;;;;66.80;30.00;;;;;;;;;;4989775;28;20059;-80
2022/03/25 04:19:09;;;;;;;69.03;30.63;;;;;;;;;;4988837;28;20110;-82
2022/03/25 04:21:36;;;;;;;66.63;29.50;;;;;;;;;;4989637;28;20121;-81
2022/03/25 04:24:02;;;;;;;65.45;28.38;;;;;;;;;;4990031;28;20102;-82
2022/03/25 04:26:28;;;;;;;63.95;27.92;;;;;;;;;;4990163;28;20117;-81
2022/03/25 04:28:55;;;;;;;57.45;25.98;;;;;;;;;;4989584;28;20051;-80
2022/03/25 04:31:21;;;;;;;61.75;26.40;;;;;;;;;;4971819;28;20885;-82
2022/03/25 04:33:48;;;;;;;61.92;26.35;;;;;;;;;;4990275;28;20059;-82
2022/03/25 04:36:14;;;;;;;59.85;26.63;;;;;;;;;;5005369;28;20557;-81
2022/03/25 04:38:41;;;;;;;61.92;26.65;;;;;;;;;;4988360;28;20464;-80
2022/03/25 04:41:10;;;;;;;60.83;26.20;;;;;;;;;;4990683;28;20130;-82
2022/03/25 04:43:39;;;;;;;60.53;26.13;;;;;;;;;;4990840;28;20118;-81
2022/03/25 04:46:06;;;;;;;55.40;25.27;;;;;;;;;;4989732;28;20055;-82
2022/03/25 04:48:33;;;;;;;61.40;26.23;;;;;;;;;;4979395;28;20590;-81
2022/03/25 04:50:59;;;;;;;60.83;26.17;;;;;;;;;;4988921;28;20069;-82
2022/03/25 04:53:26;;;;;;;63.92;26.17;;;;;;;;;;4989011;28;20051;-83
2022/03/25 04:55:52;;;;;;;61.88;26.90;;;;;;;;;;4988724;28;21011;-82
2022/03/25 04:58:19;;;;;;;62.28;26.42;;;;;;;;;;4991231;28;20067;-81
2022/03/25 05:00:45;;;;;;;59.67;25.35;;;;;;;;;;4995694;28;20059;-81
2022/03/25 05:03:12;;;;;;;65.50;27.33;;;;;;;;;;4989012;28;20801;-82
2022/03/25 05:05:42;;;;;;;65.43;27.02;;;;;;;;;;4987627;28;20031;-82
2022/03/25 05:08:11;;;;;;;63.72;26.33;;;;;;;;;;5008553;28;20662;-81
2022/03/25 05:10:38;;;;;;;59.55;25.77;;;;;;;;;;5015705;28;20086;-81
2022/03/25 05:13:25;;;;;;;59.15;24.52;;;;;;;;;;5006145;28;20134;-80
2022/03/25 05:15:51;;;;;;;65.85;26.83;;;;;;;;;;5009793;28;20055;-83
2022/03/25 05:18:18;;;;;;;65.75;26.95;;;;;;;;;;5025481;28;20062;-82
2022/03/25 05:20:44;;;;;;;69.28;26.58;;;;;;;;;;5002321;28;20564;-81
2022/03/25 05:23:11;;;;;;;59.58;25.70;;;;;;;;;;4990955;28;20059;-80
2022/03/25 05:25:37;;;;;;;63.15;26.48;;;;;;;;;;4990596;28;20125;-81
2022/03/25 05:28:03;;;;;;;58.95;25.67;;;;;;;;;;4991495;28;20054;-83
2022/03/25 05:30:31;;;;;;;62.80;26.23;;;;;;;;;;4991949;28;20082;-82
2022/03/25 05:32:58;;;;;;;62.33;25.98;;;;;;;;;;4993749;28;20051;-83
2022/03/25 05:35:26;;;;;;;61.85;25.55;;;;;;;;;;4993686;28;20054;-80
2022/03/25 05:37:53;;;;;;;67.20;28.67;;;;;;;;;;4984292;28;20078;-80
2022/03/25 05:40:20;;;;;;;65.13;27.85;;;;;;;;;;4993250;28;20074;-81
2022/03/25 05:42:48;;;;;;;64.20;26.30;;;;;;;;;;4998194;28;20573;-83
2022/03/25 05:45:16;;;;;;;61.88;26.33;;;;;;;;;;4995127;28;20549;-85
2022/03/25 05:47:42;;;;;;;63.25;26.35;;;;;;;;;;4995820;28;21262;-80
2022/03/25 05:50:10;;;;;;;69.80;27.70;;;;;;;;;;4993952;28;20058;-84
2022/03/25 05:52:36;;;;;;;66.45;27.60;;;;;;;;;;4993299;28;20063;-80
2022/03/25 05:55:04;;;;;;;58.63;25.23;;;;;;;;;;4987076;28;20102;-82
2022/03/25 05:57:31;;;;;;;67.40;26.15;;;;;;;;;;4991143;28;20062;-79
2022/03/25 05:59:59;;;;;;;63.95;26.90;;;;;;;;;;4995489;28;20051;-80
2022/03/25 06:02:27;;;;;;;64.88;28.10;;;;;;;;;;4994055;28;20050;-81
2022/03/25 06:04:55;;;;;;;66.10;25.50;;;;;;;;;;4998884;28;20051;-79
2022/03/25 06:07:22;;;;;;;65.78;27.35;;;;;;;;;;5001159;28;20055;-82
2022/03/25 06:09:48;;;;;;;60.70;24.77;;;;;;;;;;4993299;28;20051;-80
2022/03/25 06:12:14;;;;;;;61.15;27.25;;;;;;;;;;4993957;28;20034;-79
2022/03/25 06:14:44;;;;;;;68.93;28.90;;;;;;;;;;4994908;28;20054;-82
2022/03/25 06:17:10;;;;;;;70.93;28.15;;;;;;;;;;4993542;28;20596;-81
2022/03/25 06:19:37;;;;;;;76.15;28.95;;;;;;;;;;4993855;28;20070;-80
2022/03/25 06:22:03;;;;;;;66.97;29.08;;;;;;;;;;4996313;28;20579;-81
2022/03/25 06:24:29;;;;;;;68.32;28.90;;;;;;;;;;5016925;28;20176;-80
2022/03/25 06:26:56;;;;;;;70.95;28.63;;;;;;;;;;4992341;28;20054;-80
2022/03/25 06:29:22;;;;;;;61.50;27.70;;;;;;;;;;4981348;28;20052;-80
2022/03/25 06:31:48;;;;;;;66.25;28.45;;;;;;;;;;4981764;28;20972;-83
2022/03/25 06:34:20;;;;;;;71.35;29.63;;;;;;;;;;4991893;28;20097;-82
2022/03/25 06:36:48;;;;;;;69.75;31.05;;;;;;;;;;4992243;28;20113;-80
2022/03/25 06:39:15;;;;;;;68.25;29.85;;;;;;;;;;4986753;28;20047;-80
2022/03/25 06:41:42;;;;;;;73.03;31.55;;;;;;;;;;4993696;28;20074;-82
2022/03/25 06:44:08;;;;;;;68.40;29.13;;;;;;;;;;4994421;28;20114;-81
2022/03/25 06:46:35;;;;;;;70.40;29.30;;;;;;;;;;4992583;28;20047;-82
2022/03/25 06:49:01;;;;;;;68.93;29.65;;;;;;;;;;4991136;28;20889;-81
2022/03/25 06:51:28;;;;;;;71.72;31.02;;;;;;;;;;4990830;28;20054;-82
2022/03/25 06:53:54;;;;;;;69.65;30.10;;;;;;;;;;4990627;28;20521;-80
2022/03/25 06:56:21;;;;;;;79.50;31.75;;;;;;;;;;4990445;28;20070;-81
2022/03/25 06:58:47;;;;;;;74.20;32.60;;;;;;;;;;4990538;28;20187;-80
2022/03/25 07:01:15;;;;;;;80.53;32.65;;;;;;;;;;4990449;28;20054;-82
2022/03/25 07:03:42;;;;;;;72.70;31.75;;;;;;;;;;4978655;28;20877;-81
2022/03/25 07:06:09;;;;;;;96.32;41.17;;;;;;;;;;4975072;28;20529;-81
2022/03/25 07:08:38;;;;;;;101.35;43.28;;;;;;;;;;4991005;28;20238;-81
2022/03/25 07:11:05;;;;;;;104.68;42.15;;;;;;;;;;4991682;28;20106;-81
2022/03/25 07:13:32;;;;;;;104.32;43.08;;;;;;;;;;4997876;28;20054;-81
2022/03/25 07:15:58;;;;;;;102.72;42.83;;;;;;;;;;5012099;28;20089;-82
2022/03/25 07:18:25;;;;;;;104.13;43.95;;;;;;;;;;4983721;28;20093;-82
2022/03/25 07:20:51;;;;;;;101.63;43.47;;;;;;;;;;4991309;28;20054;-82
2022/03/25 07:23:17;;;;;;;105.03;42.70;;;;;;;;;;4986547;28;20054;-82
2022/03/25 07:25:44;;;;;;;103.05;43.28;;;;;;;;;;4988698;28;20039;-81
2022/03/25 07:28:11;;;;;;;108.60;43.40;;;;;;;;;;4993577;28;20126;-82
2022/03/25 07:30:38;;;;;;;99.93;43.55;;;;;;;;;;4993164;28;20114;-81
2022/03/25 07:33:04;;;;;;;103.07;43.97;;;;;;;;;;4992399;28;20108;-81
2022/03/25 07:35:31;;;;;;;111.03;44.88;;;;;;;;;;4991981;28;20055;-83
2022/03/25 07:37:57;;;;;;;103.50;43.83;;;;;;;;;;4998304;28;20059;-80
2022/03/25 07:40:25;;;;;;;97.55;43.55;;;;;;;;;;4992901;28;20082;-81
2022/03/25 07:42:51;;;;;;;99.65;44.05;;;;;;;;;;4995249;28;20058;-82
2022/03/25 07:45:18;;;;;;;96.82;43.42;;;;;;;;;;4995525;28;20031;-81
2022/03/25 07:47:46;;;;;;;101.38;44.33;;;;;;;;;;4999420;28;20887;-83
2022/03/25 07:50:13;;;;;;;98.32;42.00;;;;;;;;;;5013978;28;20058;-82
2022/03/25 07:52:40;;;;;;;93.75;42.10;;;;;;;;;;5005109;28;20047;-82
2022/03/25 07:55:09;;;;;;;93.53;42.35;;;;;;;;;;5002477;28;20067;-83
2022/03/25 07:57:37;;;;;;;90.18;41.53;;;;;;;;;;4997420;28;20039;-82
2022/03/25 08:00:04;;;;;;;89.38;41.58;;;;;;;;;;4995759;28;20426;-82
2022/03/25 08:02:31;;;;;;;87.57;41.90;;;;;;;;;;4995312;28;20866;-82
2022/03/25 08:04:57;;;;;;;83.70;39.53;;;;;;;;;;4996146;28;20544;-83
2022/03/25 08:07:24;;;;;;;82.65;39.13;;;;;;;;;;4993117;28;20058;-82
2022/03/25 08:09:50;;;;;;;83.45;39.17;;;;;;;;;;4993427;28;20110;-83
2022/03/25 08:12:17;;;;;;;86.00;40.28;;;;;;;;;;4994058;28;20051;-84
2022/03/25 08:14:45;;;;;;;84.38;40.58;;;;;;;;;;4993726;28;20055;-82
2022/03/25 08:17:12;;;;;;;80.82;37.20;;;;;;;;;;4992397;28;20051;-82
2022/03/25 08:19:38;;;;;;;75.82;37.58;;;;;;;;;;4995352;28;20046;-83
2022/03/25 08:22:04;;;;;;;77.47;37.88;;;;;;;;;;4993426;28;20039;-82
2022/03/25 08:30:01;;;;;;;71.60;36.47;;;;;;;;;;4995631;28;20051;-82
2022/03/25 08:32:28;;;;;;;74.80;36.40;;;;;;;;;;4995775;28;20055;-82
2022/03/25 08:34:54;;;;;;;75.80;36.88;;;;;;;;;;4993511;28;20082;-82
2022/03/25 08:37:28;;;;;;;77.28;36.35;;;;;;;;;;4994029;28;20086;-82
2022/03/25 08:39:54;;;;;;;71.40;34.65;;;;;;;;;;4990702;28;20486;-82
2022/03/25 08:42:20;;;;;;;68.55;35.10;;;;;;;;;;4983145;28;20059;-81
2022/03/25 08:44:47;;;;;;;71.60;35.13;;;;;;;;;;4991344;28;20067;-81
2022/03/25 08:47:13;;;;;;;70.75;36.53;;;;;;;;;;4994858;28;20054;-81
2022/03/25 08:49:39;;;;;;;72.43;36.20;;;;;;;;;;4995769;28;20065;-81
2022/03/25 08:52:06;;;;;;;66.15;34.90;;;;;;;;;;4992494;28;20034;-82
2022/03/25 08:54:32;;;;;;;68.50;35.42;;;;;;;;;;4993617;28;20656;-81
2022/03/25 08:57:00;;;;;;;62.47;35.47;;;;;;;;;;4994527;28;20059;-82
2022/03/25 08:59:27;;;;;;;68.50;33.63;;;;;;;;;;4990220;28;20078;-82
2022/03/25 09:01:56;;;;;;;65.47;33.97;;;;;;;;;;4990896;28;20109;-81
2022/03/25 09:04:24;;;;;;;62.03;32.00;;;;;;;;;;4994553;28;20087;-82
2022/03/25 09:06:51;;;;;;;65.22;33.25;;;;;;;;;;4996681;28;20059;-82
2022/03/25 09:09:17;;;;;;;60.97;30.98;;;;;;;;;;4995928;28;20130;-82
2022/03/25 09:11:44;;;;;;;66.30;33.00;;;;;;;;;;4999241;28;20043;-82
2022/03/25 09:14:11;;;;;;;63.47;32.67;;;;;;;;;;4996986;28;20055;-82
2022/03/25 09:16:38;;;;;;;66.25;32.20;;;;;;;;;;5000699;28;20883;-82
2022/03/25 09:19:08;;;;;;;62.75;31.15;;;;;;;;;;4998921;28;20055;-82
2022/03/25 09:21:35;;;;;;;58.67;29.52;;;;;;;;;;4998143;28;20081;-82
2022/03/25 09:24:01;;;;;;;55.38;28.38;;;;;;;;;;4997150;28;20758;-83
2022/03/25 09:26:27;;;;;;;52.60;28.25;;;;;;;;;;4998016;28;20047;-83
2022/03/25 09:28:54;;;;;;;49.45;27.85;;;;;;;;;;5002766;28;20126;-83
2022/03/25 09:31:20;;;;;;;56.60;28.27;;;;;;;;;;4994812;28;20047;-84
2022/03/25 09:36:52;;;;;;;53.05;27.98;;;;;;;;;;5003177;28;20939;-85
2022/03/25 09:39:19;;;;;;;54.78;28.58;;;;;;;;;;5024306;28;20089;-85
2022/03/25 09:41:46;;;;;;;52.08;27.80;;;;;;;;;;5001137;28;20869;-84
2022/03/25 09:44:15;;;;;;;51.15;27.77;;;;;;;;;;5001043;28;20110;-83
2022/03/25 09:46:43;;;;;;;52.92;27.27;;;;;;;;;;4998972;28;20058;-84
2022/03/25 09:49:09;;;;;;;47.80;27.35;;;;;;;;;;4999016;28;20498;-83
2022/03/25 09:51:37;;;;;;;51.30;27.90;;;;;;;;;;4999757;28;20058;-83
2022/03/25 09:54:05;;;;;;;49.47;26.50;;;;;;;;;;4994675;28;20573;-84
2022/03/25 09:56:35;;;;;;;45.75;25.13;;;;;;;;;;4999801;28;20059;-86
2022/03/25 09:59:02;;;;;;;47.17;26.67;;;;;;;;;;4998232;28;20411;-82
2022/03/25 10:01:29;;;;;;;47.85;27.95;;;;;;;;;;4998336;28;20059;-82
2022/03/25 10:03:55;;;;;;;50.72;27.13;;;;;;;;;;4997093;28;20085;-82
2022/03/25 10:06:22;;;;;;;49.25;27.55;;;;;;;;;;4998654;28;20054;-82
2022/03/25 10:08:56;;;;;;;53.63;28.02;;;;;;;;;;5003835;28;20065;-83
2022/03/25 10:11:24;;;;;;;46.25;27.15;;;;;;;;;;4991198;28;20471;-83
2022/03/25 10:14:09;;;;;;;48.05;26.65;;;;;;;;;;4997071;28;20110;-83
2022/03/25 10:16:35;;;;;;;47.28;27.63;;;;;;;;;;4996574;28;20505;-83
2022/03/25 10:19:03;;;;;;;46.58;27.33;;;;;;;;;;5000204;28;20057;-83
2022/03/25 10:21:48;;;;;;;49.28;28.25;;;;;;;;;;4998105;28;20057;-82
2022/03/25 10:24:18;;;;;;;48.72;27.30;;;;;;;;;;5003260;28;20051;-83
2022/03/25 10:26:45;;;;;;;50.92;27.85;;;;;;;;;;5002017;28;20062;-83
2022/03/25 10:29:22;;;;;;;52.42;28.48;;;;;;;;;;4994389;28;20893;-83
2022/03/25 10:32:07;;;;;;;48.83;28.52;;;;;;;;;;4991158;28;20093;-84
2022/03/25 10:34:37;;;;;;;52.78;28.15;;;;;;;;;;4995500;28;20478;-84
2022/03/25 10:37:05;;;;;;;49.65;28.30;;;;;;;;;;4993951;28;20051;-84
2022/03/25 10:39:34;;;;;;;48.58;28.73;;;;;;;;;;4993027;28;20057;-84
2022/03/25 10:42:02;;;;;;;50.15;29.48;;;;;;;;;;4993517;28;21061;-84
2022/03/25 10:44:33;;;;;;;55.70;29.30;;;;;;;;;;4993503;28;20105;-84
2022/03/25 10:46:59;;;;;;;47.90;29.02;;;;;;;;;;4993410;28;20098;-84
2022/03/25 10:49:36;;;;;;;46.88;29.13;;;;;;;;;;4992665;28;20101;-82
2022/03/25 10:52:04;;;;;;;47.65;27.75;;;;;;;;;;4992784;28;20135;-85
2022/03/25 10:54:30;;;;;;;51.95;29.90;;;;;;;;;;4992606;28;20477;-84
2022/03/25 10:56:59;;;;;;;51.00;29.50;;;;;;;;;;4993512;28;20054;-85
2022/03/25 10:59:26;;;;;;;51.05;29.83;;;;;;;;;;4990050;28;20094;-85
2022/03/25 11:01:54;;;;;;;44.40;26.92;;;;;;;;;;4992521;28;20062;-84
2022/03/25 11:04:21;;;;;;;50.78;29.15;;;;;;;;;;4991601;28;20051;-83
2022/03/25 11:06:48;;;;;;;50.25;29.70;;;;;;;;;;4995773;28;20805;-85
2022/03/25 11:09:16;;;;;;;47.00;29.60;;;;;;;;;;4992561;28;20058;-80
2022/03/25 11:11:43;;;;;;;46.70;29.27;;;;;;;;;;5014886;28;20099;-83
2022/03/25 11:14:12;;;;;;;52.30;29.38;;;;;;;;;;5014357;28;20519;-83
2022/03/25 11:16:41;;;;;;;48.20;28.77;;;;;;;;;;5014817;28;20058;-83
2022/03/25 11:19:09;;;;;;;45.88;29.05;;;;;;;;;;4995576;28;20141;-81
2022/03/25 11:21:39;;;;;;;49.42;29.55;;;;;;;;;;4996537;28;20549;-83
2022/03/25 11:24:07;;;;;;;50.13;30.08;;;;;;;;;;4990259;28;20102;-82
2022/03/25 11:26:36;;;;;;;44.90;25.63;;;;;;;;;;5002731;28;20106;-81
2022/03/25 11:29:05;;;;;;;46.70;26.80;;;;;;;;;;4992260;28;20042;-83
2022/03/25 11:31:56;;;;;;;44.63;25.80;;;;;;;;;;5008865;28;20104;-84
2022/03/25 11:34:26;;;;;;;43.40;25.58;;;;;;;;;;4992214;28;20086;-84
2022/03/25 11:37:11;;;;;;;43.05;26.20;;;;;;;;;;4995331;28;20260;-84
2022/03/25 11:39:38;;;;;;;40.00;25.65;;;;;;;;;;5006176;28;20117;-84
2022/03/25 11:42:06;;;;;;;44.70;25.05;;;;;;;;;;4991639;28;20051;-84
2022/03/25 11:44:33;;;;;;;44.63;25.13;;;;;;;;;;4991812;28;20055;-82
2022/03/25 11:47:00;;;;;;;39.05;23.80;;;;;;;;;;4993084;28;20051;-84
2022/03/25 11:49:31;;;;;;;41.15;23.90;;;;;;;;;;5008844;28;20054;-82
2022/03/25 11:52:18;;;;;;;45.03;23.88;;;;;;;;;;4992864;28;20510;-83
2022/03/25 11:54:44;;;;;;;40.15;24.15;;;;;;;;;;4990699;28;20051;-84
2022/03/25 11:57:26;;;;;;;39.42;23.85;;;;;;;;;;4994326;28;20118;-84
2022/03/25 11:59:54;;;;;;;38.63;23.73;;;;;;;;;;4993346;28;20142;-83
2022/03/25 12:02:22;;;;;;;38.30;23.50;;;;;;;;;;4992378;28;20391;-85
2022/03/25 12:04:49;;;;;;;42.08;24.20;;;;;;;;;;4994067;28;20055;-83
2022/03/25 12:07:16;;;;;;;38.13;23.42;;;;;;;;;;4992116;28;20082;-84
2022/03/25 12:09:46;;;;;;;41.90;25.00;;;;;;;;;;4989542;28;20533;-84
2022/03/25 12:12:13;;;;;;;44.47;24.97;;;;;;;;;;4992025;28;20054;-83
2022/03/25 12:14:59;;;;;;;39.67;24.88;;;;;;;;;;5001152;28;20451;-83
2022/03/25 12:17:25;;;;;;;41.03;23.20;;;;;;;;;;5008880;28;20062;-84
2022/03/25 12:19:54;;;;;;;42.72;23.73;;;;;;;;;;5000718;28;20133;-82
2022/03/25 12:22:23;;;;;;;46.05;25.75;;;;;;;;;;4993307;28;20086;-84
2022/03/25 12:24:50;;;;;;;42.70;25.40;;;;;;;;;;4989957;28;20110;-84
2022/03/25 12:27:17;;;;;;;43.80;24.98;;;;;;;;;;4974565;28;20111;-83
2022/03/25 12:29:45;;;;;;;46.13;25.85;;;;;;;;;;4994037;28;20101;-82
2022/03/25 12:32:15;;;;;;;41.55;24.90;;;;;;;;;;4992869;28;20063;-84
2022/03/25 12:34:54;;;;;;;39.10;25.42;;;;;;;;;;4991769;28;20544;-83
2022/03/25 12:37:28;;;;;;;49.75;25.65;;;;;;;;;;4993634;28;20163;-82
2022/03/25 12:39:54;;;;;;;39.78;24.58;;;;;;;;;;4998795;28;20642;-83
2022/03/25 12:42:21;;;;;;;43.70;25.15;;;;;;;;;;5000713;28;20062;-84
2022/03/25 12:44:54;;;;;;;41.72;23.75;;;;;;;;;;5005204;28;20050;-82
2022/03/25 12:47:30;;;;;;;42.53;25.23;;;;;;;;;;5000291;28;20055;-85
2022/03/25 12:50:00;;;;;;;40.85;25.73;;;;;;;;;;4997119;28;20062;-85
2022/03/25 12:52:27;;;;;;;46.00;26.25;;;;;;;;;;4996221;28;20050;-85
2022/03/25 12:54:53;;;;;;;45.92;25.33;;;;;;;;;;4997774;28;20039;-84
2022/03/25 12:57:33;;;;;;;43.28;24.05;;;;;;;;;;4999626;28;20067;-85
2022/03/25 12:59:59;;;;;;;37.27;20.77;;;;;;;;;;4992680;28;20063;-86
2022/03/25 13:02:33;;;;;;;43.03;23.98;;;;;;;;;;4993972;28;20700;-87
2022/03/25 13:05:19;;;;;;;39.83;23.27;;;;;;;;;;4993142;28;20062;-87
2022/03/25 13:07:49;;;;;;;40.70;23.42;;;;;;;;;;5004367;28;20059;-86
2022/03/25 13:10:16;;;;;;;43.47;25.63;;;;;;;;;;4989171;28;20062;-85
2022/03/25 13:12:44;;;;;;;42.65;27.38;;;;;;;;;;4992869;28;20054;-84
2022/03/25 13:15:11;;;;;;;44.97;26.55;;;;;;;;;;5008244;28;20039;-85
2022/03/25 13:17:43;;;;;;;41.33;24.90;;;;;;;;;;4988608;28;20602;-83
2022/03/25 13:20:15;;;;;;;43.85;25.17;;;;;;;;;;4984327;28;20051;-85
2022/03/25 13:22:54;;;;;;;44.78;24.85;;;;;;;;;;4994843;28;20089;-83
2022/03/25 13:25:36;;;;;;;42.03;23.75;;;;;;;;;;4991262;28;20054;-86
2022/03/25 13:28:04;;;;;;;42.15;25.00;;;;;;;;;;4990120;28;20059;-89
2022/03/25 13:30:31;;;;;;;37.95;22.67;;;;;;;;;;4997478;28;20058;-87
2022/03/25 13:33:02;;;;;;;37.85;23.55;;;;;;;;;;4989674;28;20114;-87
2022/03/25 13:35:36;;;;;;;41.72;23.63;;;;;;;;;;4991341;28;20106;-86
2022/03/25 13:38:07;;;;;;;42.65;23.65;;;;;;;;;;4988318;28;20066;-84
2022/03/25 13:40:36;;;;;;;51.53;25.13;;;;;;;;;;4990862;28;20565;-84
2022/03/25 13:43:04;;;;;;;44.67;23.63;;;;;;;;;;4993334;28;20542;-84
2022/03/25 13:45:30;;;;;;;44.22;24.92;;;;;;;;;;4991336;28;20924;-87
2022/03/25 13:48:01;;;;;;;40.45;24.95;;;;;;;;;;4990495;28;20058;-85
2022/03/25 13:50:28;;;;;;;42.58;25.00;;;;;;;;;;4987906;28;20101;-87
2022/03/25 13:53:09;;;;;;;44.80;24.55;;;;;;;;;;4987570;28;20110;-86
2022/03/25 13:55:41;;;;;;;43.28;23.38;;;;;;;;;;5000910;28;20532;-87
2022/03/25 13:58:31;;;;;;;41.05;24.20;;;;;;;;;;4997524;28;20090;-85
2022/03/25 14:00:58;;;;;;;39.97;24.05;;;;;;;;;;4988080;28;20129;-85
2022/03/25 14:03:29;;;;;;;43.00;23.67;;;;;;;;;;4987706;28;20582;-87
2022/03/25 14:06:09;;;;;;;40.90;22.38;;;;;;;;;;4987824;28;20134;-85
2022/03/25 14:08:37;;;;;;;44.17;22.93;;;;;;;;;;4987840;28;20117;-84
2022/03/25 14:11:04;;;;;;;42.78;23.25;;;;;;;;;;4989506;28;20117;-87
2022/03/25 14:13:31;;;;;;;43.95;23.38;;;;;;;;;;4995092;28;20055;-84
2022/03/25 14:16:13;;;;;;;43.60;23.65;;;;;;;;;;4990221;28;20054;-85
2022/03/25 14:18:50;;;;;;;44.38;22.50;;;;;;;;;;4988604;28;20546;-86
2022/03/25 14:21:25;;;;;;;36.67;21.80;;;;;;;;;;4988529;28;20137;-84
2022/03/25 14:24:30;;;;;;;35.67;18.73;;;;;;;;;;4990811;28;20039;-84
2022/03/25 14:26:38;;;;;;;38.42;22.35;;;;;;;;;;4987115;28;20058;-83
2022/03/25 14:29:09;;;;;;;41.10;23.52;;;;;;;;;;4997520;28;20054;-83
2022/03/25 14:31:36;;;;;;;41.70;23.58;;;;;;;;;;4989745;28;20145;-84